Evanston, Indiana
Current Conditions -  °F | °C
As of 1:15 PM on Thursday 27 Nov 2014 (Local Time) from KHNB Reporting Station
Overcast Overcast  
Wind Chill: 19°   Ceiling: 2100
Heat Index: 30°   Visibility: 9mi
Dew Point: 21°   Wind: 15mph
Humidity: 69%   Direction: 300°WNW
Pressure: 30.42"   Gusts: NA
Location:  38.04°N, 86.84°W
Report Text: KHNB 271915Z AUTO 30013KT 9SM OVC021 M01/M06 A3042 RMK AO1
Loading
Personal Weather Stations






























Interactive Weather Map New forecast layout! Learn more

10-Day Weather Forecast

Advertisements
Track Severe Weather on mobile